sensor_id;sensor_type;location;lat;lon;timestamp;P1;durP1;ratioP1;P2;durP2;ratioP2
58071;SDS011;60383;46.626;18.866;2023-09-12T00:00:04;6.90;;;4.40;;
58071;SDS011;60383;46.626;18.866;2023-09-12T00:02:31;5.80;;;3.90;;
58071;SDS011;60383;46.626;18.866;2023-09-12T00:04:56;7.43;;;4.22;;
58071;SDS011;60383;46.626;18.866;2023-09-12T00:07:22;4.97;;;4.00;;
58071;SDS011;60383;46.626;18.866;2023-09-12T00:09:47;6.05;;;4.05;;
58071;SDS011;60383;46.626;18.866;2023-09-12T00:12:16;4.13;;;3.63;;
58071;SDS011;60383;46.626;18.866;2023-09-12T00:14:42;5.97;;;3.72;;
58071;SDS011;60383;46.626;18.866;2023-09-12T00:17:07;5.75;;;4.10;;
58071;SDS011;60383;46.626;18.866;2023-09-12T00:19:34;5.72;;;4.07;;
58071;SDS011;60383;46.626;18.866;2023-09-12T00:22:00;6.57;;;4.40;;
58071;SDS011;60383;46.626;18.866;2023-09-12T00:24:26;5.43;;;4.00;;
58071;SDS011;60383;46.626;18.866;2023-09-12T00:26:51;7.28;;;4.22;;
58071;SDS011;60383;46.626;18.866;2023-09-12T00:29:16;5.10;;;3.92;;
58071;SDS011;60383;46.626;18.866;2023-09-12T00:31:42;6.53;;;3.70;;
58071;SDS011;60383;46.626;18.866;2023-09-12T00:34:07;6.10;;;4.00;;
58071;SDS011;60383;46.626;18.866;2023-09-12T00:36:33;5.38;;;3.60;;
58071;SDS011;60383;46.626;18.866;2023-09-12T00:38:58;6.35;;;4.25;;
58071;SDS011;60383;46.626;18.866;2023-09-12T00:41:24;6.40;;;3.95;;
58071;SDS011;60383;46.626;18.866;2023-09-12T00:43:49;5.75;;;3.92;;
58071;SDS011;60383;46.626;18.866;2023-09-12T00:46:18;5.50;;;4.30;;
58071;SDS011;60383;46.626;18.866;2023-09-12T00:48:44;8.48;;;4.30;;
58071;SDS011;60383;46.626;18.866;2023-09-12T00:51:11;7.13;;;3.97;;
58071;SDS011;60383;46.626;18.866;2023-09-12T00:53:39;5.82;;;3.80;;
58071;SDS011;60383;46.626;18.866;2023-09-12T00:56:05;6.80;;;4.47;;
58071;SDS011;60383;46.626;18.866;2023-09-12T00:58:31;5.57;;;4.15;;
58071;SDS011;60383;46.626;18.866;2023-09-12T01:00:57;4.97;;;3.75;;
58071;SDS011;60383;46.626;18.866;2023-09-12T01:03:23;6.35;;;4.00;;
58071;SDS011;60383;46.626;18.866;2023-09-12T01:05:49;6.50;;;4.13;;
58071;SDS011;60383;46.626;18.866;2023-09-12T01:08:16;8.57;;;4.03;;
58071;SDS011;60383;46.626;18.866;2023-09-12T01:10:42;5.35;;;4.03;;
58071;SDS011;60383;46.626;18.866;2023-09-12T01:13:12;10.20;;;4.57;;
58071;SDS011;60383;46.626;18.866;2023-09-12T01:15:39;5.28;;;4.30;;
58071;SDS011;60383;46.626;18.866;2023-09-12T01:18:04;5.93;;;4.45;;
58071;SDS011;60383;46.626;18.866;2023-09-12T01:20:33;5.22;;;3.83;;
58071;SDS011;60383;46.626;18.866;2023-09-12T01:28:40;6.80;;;4.10;;
58071;SDS011;60383;46.626;18.866;2023-09-12T01:31:10;5.13;;;4.35;;
58071;SDS011;60383;46.626;18.866;2023-09-12T01:33:37;5.40;;;4.55;;
58071;SDS011;60383;46.626;18.866;2023-09-12T01:36:03;5.43;;;3.88;;
58071;SDS011;60383;46.626;18.866;2023-09-12T01:38:28;7.50;;;4.20;;
58071;SDS011;60383;46.626;18.866;2023-09-12T01:40:54;7.97;;;5.53;;
58071;SDS011;60383;46.626;18.866;2023-09-12T01:43:21;6.15;;;4.28;;
58071;SDS011;60383;46.626;18.866;2023-09-12T01:45:49;5.22;;;4.53;;
58071;SDS011;60383;46.626;18.866;2023-09-12T01:48:22;6.32;;;4.60;;
58071;SDS011;60383;46.626;18.866;2023-09-12T01:50:51;8.63;;;5.30;;
58071;SDS011;60383;46.626;18.866;2023-09-12T01:53:17;7.78;;;5.30;;
58071;SDS011;60383;46.626;18.866;2023-09-12T01:55:44;5.35;;;4.47;;
58071;SDS011;60383;46.626;18.866;2023-09-12T01:58:11;7.35;;;4.93;;
58071;SDS011;60383;46.626;18.866;2023-09-12T02:00:38;6.43;;;4.78;;
58071;SDS011;60383;46.626;18.866;2023-09-12T02:03:04;5.97;;;4.40;;
58071;SDS011;60383;46.626;18.866;2023-09-12T02:05:30;8.40;;;5.05;;
58071;SDS011;60383;46.626;18.866;2023-09-12T02:07:56;8.43;;;4.97;;
58071;SDS011;60383;46.626;18.866;2023-09-12T02:10:21;8.40;;;4.63;;
58071;SDS011;60383;46.626;18.866;2023-09-12T02:12:47;5.40;;;4.72;;
58071;SDS011;60383;46.626;18.866;2023-09-12T02:15:13;6.32;;;5.10;;
58071;SDS011;60383;46.626;18.866;2023-09-12T02:17:38;7.22;;;4.85;;
58071;SDS011;60383;46.626;18.866;2023-09-12T02:20:05;5.05;;;4.20;;
58071;SDS011;60383;46.626;18.866;2023-09-12T02:22:32;6.78;;;3.88;;
58071;SDS011;60383;46.626;18.866;2023-09-12T02:24:57;6.15;;;4.60;;
58071;SDS011;60383;46.626;18.866;2023-09-12T02:27:23;6.45;;;4.53;;
58071;SDS011;60383;46.626;18.866;2023-09-12T02:29:48;5.63;;;4.40;;
58071;SDS011;60383;46.626;18.866;2023-09-12T02:32:14;7.10;;;4.80;;
58071;SDS011;60383;46.626;18.866;2023-09-12T02:34:39;6.15;;;4.60;;
58071;SDS011;60383;46.626;18.866;2023-09-12T02:37:05;6.32;;;4.68;;
58071;SDS011;60383;46.626;18.866;2023-09-12T02:39:30;6.45;;;4.70;;
58071;SDS011;60383;46.626;18.866;2023-09-12T02:41:56;7.03;;;4.45;;
58071;SDS011;60383;46.626;18.866;2023-09-12T02:44:21;6.57;;;4.60;;
58071;SDS011;60383;46.626;18.866;2023-09-12T02:46:46;7.85;;;4.70;;
58071;SDS011;60383;46.626;18.866;2023-09-12T02:49:13;5.07;;;4.10;;
58071;SDS011;60383;46.626;18.866;2023-09-12T02:51:39;7.97;;;4.63;;
58071;SDS011;60383;46.626;18.866;2023-09-12T02:54:05;7.13;;;4.55;;
58071;SDS011;60383;46.626;18.866;2023-09-12T02:56:31;6.20;;;4.72;;
58071;SDS011;60383;46.626;18.866;2023-09-12T02:58:56;4.90;;;4.07;;
58071;SDS011;60383;46.626;18.866;2023-09-12T03:01:22;7.03;;;4.20;;
58071;SDS011;60383;46.626;18.866;2023-09-12T03:03:50;6.88;;;4.47;;
58071;SDS011;60383;46.626;18.866;2023-09-12T03:06:15;6.07;;;4.50;;
58071;SDS011;60383;46.626;18.866;2023-09-12T03:08:41;7.78;;;4.50;;
58071;SDS011;60383;46.626;18.866;2023-09-12T03:11:08;6.22;;;4.25;;
58071;SDS011;60383;46.626;18.866;2023-09-12T03:13:34;7.30;;;4.35;;
58071;SDS011;60383;46.626;18.866;2023-09-12T03:16:00;6.82;;;4.60;;
58071;SDS011;60383;46.626;18.866;2023-09-12T03:18:25;7.40;;;5.13;;
58071;SDS011;60383;46.626;18.866;2023-09-12T03:20:51;6.68;;;5.03;;
58071;SDS011;60383;46.626;18.866;2023-09-12T03:23:17;6.22;;;4.40;;
58071;SDS011;60383;46.626;18.866;2023-09-12T03:25:43;6.60;;;4.63;;
58071;SDS011;60383;46.626;18.866;2023-09-12T03:28:09;6.47;;;4.32;;
58071;SDS011;60383;46.626;18.866;2023-09-12T03:30:35;7.85;;;4.65;;
58071;SDS011;60383;46.626;18.866;2023-09-12T03:33:01;8.20;;;5.30;;
58071;SDS011;60383;46.626;18.866;2023-09-12T03:35:31;7.68;;;4.50;;
58071;SDS011;60383;46.626;18.866;2023-09-12T03:37:57;6.50;;;5.18;;
58071;SDS011;60383;46.626;18.866;2023-09-12T03:40:22;7.05;;;4.65;;
58071;SDS011;60383;46.626;18.866;2023-09-12T03:42:48;6.70;;;4.90;;
58071;SDS011;60383;46.626;18.866;2023-09-12T03:45:14;6.85;;;4.70;;
58071;SDS011;60383;46.626;18.866;2023-09-12T03:47:39;7.95;;;4.43;;
58071;SDS011;60383;46.626;18.866;2023-09-12T03:50:05;6.97;;;4.68;;
58071;SDS011;60383;46.626;18.866;2023-09-12T03:52:31;5.25;;;4.38;;
58071;SDS011;60383;46.626;18.866;2023-09-12T03:54:56;9.23;;;4.88;;
58071;SDS011;60383;46.626;18.866;2023-09-12T03:57:22;8.70;;;4.68;;
58071;SDS011;60383;46.626;18.866;2023-09-12T03:59:47;8.65;;;4.93;;
58071;SDS011;60383;46.626;18.866;2023-09-12T04:02:13;6.32;;;4.65;;
58071;SDS011;60383;46.626;18.866;2023-09-12T04:04:38;8.70;;;5.20;;
58071;SDS011;60383;46.626;18.866;2023-09-12T04:07:04;7.75;;;4.88;;
58071;SDS011;60383;46.626;18.866;2023-09-12T04:09:30;5.80;;;4.75;;
58071;SDS011;60383;46.626;18.866;2023-09-12T04:11:55;6.63;;;4.65;;
58071;SDS011;60383;46.626;18.866;2023-09-12T04:14:21;8.50;;;5.57;;
58071;SDS011;60383;46.626;18.866;2023-09-12T04:16:46;5.88;;;5.25;;
58071;SDS011;60383;46.626;18.866;2023-09-12T04:19:13;8.00;;;5.40;;
58071;SDS011;60383;46.626;18.866;2023-09-12T04:21:39;7.43;;;4.82;;
58071;SDS011;60383;46.626;18.866;2023-09-12T04:24:05;8.35;;;5.78;;
58071;SDS011;60383;46.626;18.866;2023-09-12T04:26:31;6.47;;;4.70;;
58071;SDS011;60383;46.626;18.866;2023-09-12T04:28:56;7.15;;;4.70;;
58071;SDS011;60383;46.626;18.866;2023-09-12T04:31:22;7.50;;;5.65;;
58071;SDS011;60383;46.626;18.866;2023-09-12T04:33:50;9.23;;;5.68;;
58071;SDS011;60383;46.626;18.866;2023-09-12T04:36:16;8.90;;;5.18;;
58071;SDS011;60383;46.626;18.866;2023-09-12T04:38:41;9.93;;;5.45;;
58071;SDS011;60383;46.626;18.866;2023-09-12T04:41:08;11.52;;;5.20;;
58071;SDS011;60383;46.626;18.866;2023-09-12T04:43:33;7.82;;;4.88;;
58071;SDS011;60383;46.626;18.866;2023-09-12T04:45:59;10.15;;;4.90;;
58071;SDS011;60383;46.626;18.866;2023-09-12T04:48:24;7.68;;;5.53;;
58071;SDS011;60383;46.626;18.866;2023-09-12T04:50:50;10.75;;;5.20;;
58071;SDS011;60383;46.626;18.866;2023-09-12T04:53:16;6.75;;;4.82;;
58071;SDS011;60383;46.626;18.866;2023-09-12T04:55:41;8.38;;;5.20;;
58071;SDS011;60383;46.626;18.866;2023-09-12T04:58:07;8.00;;;5.30;;
58071;SDS011;60383;46.626;18.866;2023-09-12T05:00:32;6.15;;;4.63;;
58071;SDS011;60383;46.626;18.866;2023-09-12T05:02:59;7.18;;;5.22;;
58071;SDS011;60383;46.626;18.866;2023-09-12T05:05:26;6.13;;;4.88;;
58071;SDS011;60383;46.626;18.866;2023-09-12T05:07:51;7.25;;;5.30;;
58071;SDS011;60383;46.626;18.866;2023-09-12T05:10:17;6.72;;;4.93;;
58071;SDS011;60383;46.626;18.866;2023-09-12T05:12:44;6.63;;;4.60;;
58071;SDS011;60383;46.626;18.866;2023-09-12T05:15:09;7.38;;;5.05;;
58071;SDS011;60383;46.626;18.866;2023-09-12T05:17:35;6.45;;;4.72;;
58071;SDS011;60383;46.626;18.866;2023-09-12T05:20:00;9.23;;;4.85;;
58071;SDS011;60383;46.626;18.866;2023-09-12T05:22:26;8.35;;;4.93;;
58071;SDS011;60383;46.626;18.866;2023-09-12T05:24:53;9.02;;;5.43;;
58071;SDS011;60383;46.626;18.866;2023-09-12T05:27:18;7.10;;;5.10;;
58071;SDS011;60383;46.626;18.866;2023-09-12T05:29:43;6.55;;;4.60;;
58071;SDS011;60383;46.626;18.866;2023-09-12T05:32:09;8.20;;;5.07;;
58071;SDS011;60383;46.626;18.866;2023-09-12T05:34:34;6.57;;;4.88;;
58071;SDS011;60383;46.626;18.866;2023-09-12T05:37:00;7.43;;;4.60;;
58071;SDS011;60383;46.626;18.866;2023-09-12T05:39:25;9.70;;;5.65;;
58071;SDS011;60383;46.626;18.866;2023-09-12T05:41:51;7.43;;;4.50;;
58071;SDS011;60383;46.626;18.866;2023-09-12T05:44:16;7.22;;;5.40;;
58071;SDS011;60383;46.626;18.866;2023-09-12T05:46:44;7.82;;;5.30;;
58071;SDS011;60383;46.626;18.866;2023-09-12T05:49:11;9.02;;;5.90;;
58071;SDS011;60383;46.626;18.866;2023-09-12T05:51:36;6.60;;;5.10;;
58071;SDS011;60383;46.626;18.866;2023-09-12T05:54:02;7.55;;;5.47;;
58071;SDS011;60383;46.626;18.866;2023-09-12T05:56:28;6.38;;;5.28;;
58071;SDS011;60383;46.626;18.866;2023-09-12T05:58:54;9.18;;;5.47;;
58071;SDS011;60383;46.626;18.866;2023-09-12T06:01:19;8.45;;;5.68;;
58071;SDS011;60383;46.626;18.866;2023-09-12T06:03:45;7.07;;;5.07;;
58071;SDS011;60383;46.626;18.866;2023-09-12T06:06:11;9.38;;;5.53;;
58071;SDS011;60383;46.626;18.866;2023-09-12T06:08:37;9.68;;;5.75;;
58071;SDS011;60383;46.626;18.866;2023-09-12T06:11:03;9.85;;;5.53;;
58071;SDS011;60383;46.626;18.866;2023-09-12T06:13:28;7.93;;;5.60;;
58071;SDS011;60383;46.626;18.866;2023-09-12T06:15:54;8.57;;;5.63;;
58071;SDS011;60383;46.626;18.866;2023-09-12T06:18:20;7.43;;;5.38;;
58071;SDS011;60383;46.626;18.866;2023-09-12T06:20:45;10.77;;;5.60;;
58071;SDS011;60383;46.626;18.866;2023-09-12T06:23:11;9.45;;;5.07;;
58071;SDS011;60383;46.626;18.866;2023-09-12T06:25:36;7.18;;;5.00;;
58071;SDS011;60383;46.626;18.866;2023-09-12T06:28:02;6.70;;;6.00;;
58071;SDS011;60383;46.626;18.866;2023-09-12T06:30:28;9.27;;;5.10;;
58071;SDS011;60383;46.626;18.866;2023-09-12T06:32:54;8.02;;;5.35;;
58071;SDS011;60383;46.626;18.866;2023-09-12T06:35:19;7.50;;;5.03;;
58071;SDS011;60383;46.626;18.866;2023-09-12T06:37:44;13.52;;;5.18;;
58071;SDS011;60383;46.626;18.866;2023-09-12T06:40:12;7.28;;;4.55;;
58071;SDS011;60383;46.626;18.866;2023-09-12T06:42:37;7.22;;;4.95;;
58071;SDS011;60383;46.626;18.866;2023-09-12T06:45:03;6.95;;;5.15;;
58071;SDS011;60383;46.626;18.866;2023-09-12T06:47:28;6.88;;;4.65;;
58071;SDS011;60383;46.626;18.866;2023-09-12T06:49:54;8.23;;;4.95;;
58071;SDS011;60383;46.626;18.866;2023-09-12T06:52:19;7.75;;;5.15;;
58071;SDS011;60383;46.626;18.866;2023-09-12T06:54:45;8.13;;;5.18;;
58071;SDS011;60383;46.626;18.866;2023-09-12T06:57:10;9.20;;;5.03;;
58071;SDS011;60383;46.626;18.866;2023-09-12T06:59:36;8.80;;;5.07;;
58071;SDS011;60383;46.626;18.866;2023-09-12T07:02:02;6.45;;;4.90;;
58071;SDS011;60383;46.626;18.866;2023-09-12T07:04:27;7.38;;;4.60;;
58071;SDS011;60383;46.626;18.866;2023-09-12T07:06:53;8.18;;;4.88;;
58071;SDS011;60383;46.626;18.866;2023-09-12T07:09:19;8.10;;;4.78;;
58071;SDS011;60383;46.626;18.866;2023-09-12T07:11:44;5.65;;;4.70;;
58071;SDS011;60383;46.626;18.866;2023-09-12T07:14:10;10.00;;;5.20;;
58071;SDS011;60383;46.626;18.866;2023-09-12T07:16:35;5.63;;;4.57;;
58071;SDS011;60383;46.626;18.866;2023-09-12T07:19:01;6.65;;;4.70;;
58071;SDS011;60383;46.626;18.866;2023-09-12T07:21:28;6.57;;;5.22;;
58071;SDS011;60383;46.626;18.866;2023-09-12T07:23:54;6.05;;;4.60;;
58071;SDS011;60383;46.626;18.866;2023-09-12T07:26:20;6.32;;;4.70;;
58071;SDS011;60383;46.626;18.866;2023-09-12T07:28:46;6.45;;;4.63;;
58071;SDS011;60383;46.626;18.866;2023-09-12T07:31:11;9.68;;;4.60;;
58071;SDS011;60383;46.626;18.866;2023-09-12T07:33:37;6.50;;;4.50;;
58071;SDS011;60383;46.626;18.866;2023-09-12T07:36:02;6.22;;;4.80;;
58071;SDS011;60383;46.626;18.866;2023-09-12T07:38:28;7.20;;;4.53;;
58071;SDS011;60383;46.626;18.866;2023-09-12T07:40:55;5.78;;;4.30;;
58071;SDS011;60383;46.626;18.866;2023-09-12T07:43:21;7.32;;;4.60;;
58071;SDS011;60383;46.626;18.866;2023-09-12T07:45:47;7.72;;;4.25;;
58071;SDS011;60383;46.626;18.866;2023-09-12T07:48:14;4.97;;;4.00;;
58071;SDS011;60383;46.626;18.866;2023-09-12T07:50:40;6.13;;;3.97;;
58071;SDS011;60383;46.626;18.866;2023-09-12T07:53:06;7.05;;;4.25;;
58071;SDS011;60383;46.626;18.866;2023-09-12T07:55:31;7.03;;;4.82;;
58071;SDS011;60383;46.626;18.866;2023-09-12T07:58:02;5.82;;;3.80;;
58071;SDS011;60383;46.626;18.866;2023-09-12T08:00:28;5.93;;;3.40;;
58071;SDS011;60383;46.626;18.866;2023-09-12T08:02:54;6.47;;;3.88;;
58071;SDS011;60383;46.626;18.866;2023-09-12T08:05:19;7.15;;;3.97;;
58071;SDS011;60383;46.626;18.866;2023-09-12T08:07:45;5.85;;;3.58;;
58071;SDS011;60383;46.626;18.866;2023-09-12T08:10:10;5.13;;;3.65;;
58071;SDS011;60383;46.626;18.866;2023-09-12T08:12:36;6.60;;;3.50;;
58071;SDS011;60383;46.626;18.866;2023-09-12T08:15:03;5.85;;;4.22;;
58071;SDS011;60383;46.626;18.866;2023-09-12T08:17:29;4.65;;;3.42;;
58071;SDS011;60383;46.626;18.866;2023-09-12T08:19:55;5.25;;;3.38;;
58071;SDS011;60383;46.626;18.866;2023-09-12T08:22:20;4.57;;;3.60;;
58071;SDS011;60383;46.626;18.866;2023-09-12T08:24:46;4.80;;;3.50;;
58071;SDS011;60383;46.626;18.866;2023-09-12T08:27:11;4.75;;;3.35;;
58071;SDS011;60383;46.626;18.866;2023-09-12T08:29:37;5.15;;;3.22;;
58071;SDS011;60383;46.626;18.866;2023-09-12T08:32:03;4.72;;;2.75;;
58071;SDS011;60383;46.626;18.866;2023-09-12T08:34:29;4.45;;;3.08;;
58071;SDS011;60383;46.626;18.866;2023-09-12T08:36:54;3.67;;;2.60;;
58071;SDS011;60383;46.626;18.866;2023-09-12T08:39:23;6.47;;;2.95;;
58071;SDS011;60383;46.626;18.866;2023-09-12T08:41:50;4.57;;;3.00;;
58071;SDS011;60383;46.626;18.866;2023-09-12T08:44:16;5.57;;;3.03;;
58071;SDS011;60383;46.626;18.866;2023-09-12T08:46:43;4.18;;;2.70;;
58071;SDS011;60383;46.626;18.866;2023-09-12T08:49:09;5.18;;;3.00;;
58071;SDS011;60383;46.626;18.866;2023-09-12T08:51:39;6.00;;;3.20;;
58071;SDS011;60383;46.626;18.866;2023-09-12T08:54:05;5.82;;;3.42;;
58071;SDS011;60383;46.626;18.866;2023-09-12T08:56:35;4.30;;;2.88;;
58071;SDS011;60383;46.626;18.866;2023-09-12T08:59:04;3.83;;;3.03;;
58071;SDS011;60383;46.626;18.866;2023-09-12T09:01:31;4.53;;;3.17;;
58071;SDS011;60383;46.626;18.866;2023-09-12T09:03:57;4.57;;;3.13;;
58071;SDS011;60383;46.626;18.866;2023-09-12T09:06:23;4.18;;;3.10;;
58071;SDS011;60383;46.626;18.866;2023-09-12T09:08:50;4.60;;;3.30;;
58071;SDS011;60383;46.626;18.866;2023-09-12T09:11:16;3.67;;;2.90;;
58071;SDS011;60383;46.626;18.866;2023-09-12T09:13:42;5.93;;;3.33;;
58071;SDS011;60383;46.626;18.866;2023-09-12T09:21:18;7.43;;;3.47;;
58071;SDS011;60383;46.626;18.866;2023-09-12T09:23:45;4.38;;;3.00;;
58071;SDS011;60383;46.626;18.866;2023-09-12T09:26:12;5.82;;;3.38;;
58071;SDS011;60383;46.626;18.866;2023-09-12T09:28:38;6.07;;;3.25;;
58071;SDS011;60383;46.626;18.866;2023-09-12T09:31:04;7.20;;;3.10;;
58071;SDS011;60383;46.626;18.866;2023-09-12T09:33:35;5.45;;;3.30;;
58071;SDS011;60383;46.626;18.866;2023-09-12T09:36:05;4.57;;;2.95;;
58071;SDS011;60383;46.626;18.866;2023-09-12T09:38:31;8.25;;;3.67;;
58071;SDS011;60383;46.626;18.866;2023-09-12T09:40:59;5.30;;;3.35;;
58071;SDS011;60383;46.626;18.866;2023-09-12T09:43:25;3.92;;;3.00;;
58071;SDS011;60383;46.626;18.866;2023-09-12T09:45:50;4.00;;;3.03;;
58071;SDS011;60383;46.626;18.866;2023-09-12T09:48:19;6.40;;;3.65;;
58071;SDS011;60383;46.626;18.866;2023-09-12T09:50:46;4.72;;;3.10;;
58071;SDS011;60383;46.626;18.866;2023-09-12T09:53:12;9.77;;;3.42;;
58071;SDS011;60383;46.626;18.866;2023-09-12T09:55:38;4.68;;;3.33;;
58071;SDS011;60383;46.626;18.866;2023-09-12T09:58:06;4.63;;;2.88;;
58071;SDS011;60383;46.626;18.866;2023-09-12T10:00:36;8.43;;;2.80;;
58071;SDS011;60383;46.626;18.866;2023-09-12T10:03:04;3.45;;;2.40;;
58071;SDS011;60383;46.626;18.866;2023-09-12T10:05:34;3.70;;;2.80;;
58071;SDS011;60383;46.626;18.866;2023-09-12T10:08:02;3.38;;;2.58;;
58071;SDS011;60383;46.626;18.866;2023-09-12T10:10:31;5.10;;;2.70;;
58071;SDS011;60383;46.626;18.866;2023-09-12T10:12:59;5.80;;;2.88;;
58071;SDS011;60383;46.626;18.866;2023-09-12T10:15:29;5.60;;;3.55;;
58071;SDS011;60383;46.626;18.866;2023-09-12T10:18:00;4.97;;;2.95;;
58071;SDS011;60383;46.626;18.866;2023-09-12T10:20:50;4.65;;;2.60;;
58071;SDS011;60383;46.626;18.866;2023-09-12T10:25:52;3.92;;;2.30;;
58071;SDS011;60383;46.626;18.866;2023-09-12T10:28:19;3.50;;;2.75;;
58071;SDS011;60383;46.626;18.866;2023-09-12T10:30:46;5.35;;;3.13;;
58071;SDS011;60383;46.626;18.866;2023-09-12T10:33:12;4.60;;;2.70;;
58071;SDS011;60383;46.626;18.866;2023-09-12T10:35:40;6.28;;;3.00;;
58071;SDS011;60383;46.626;18.866;2023-09-12T10:38:07;4.43;;;3.20;;
58071;SDS011;60383;46.626;18.866;2023-09-12T10:40:36;2.97;;;2.67;;
58071;SDS011;60383;46.626;18.866;2023-09-12T10:43:03;5.57;;;2.65;;
58071;SDS011;60383;46.626;18.866;2023-09-12T10:45:33;3.97;;;2.58;;
58071;SDS011;60383;46.626;18.866;2023-09-12T10:48:02;4.75;;;2.60;;
58071;SDS011;60383;46.626;18.866;2023-09-12T10:50:28;4.35;;;2.78;;
58071;SDS011;60383;46.626;18.866;2023-09-12T10:52:54;3.88;;;2.45;;
58071;SDS011;60383;46.626;18.866;2023-09-12T10:55:19;10.90;;;2.47;;
58071;SDS011;60383;46.626;18.866;2023-09-12T10:58:01;3.03;;;2.15;;
58071;SDS011;60383;46.626;18.866;2023-09-12T11:00:30;5.97;;;2.70;;
58071;SDS011;60383;46.626;18.866;2023-09-12T11:03:44;4.70;;;2.63;;
58071;SDS011;60383;46.626;18.866;2023-09-12T11:05:54;4.22;;;2.63;;
58071;SDS011;60383;46.626;18.866;2023-09-12T11:08:20;4.40;;;2.40;;
58071;SDS011;60383;46.626;18.866;2023-09-12T11:11:31;5.78;;;2.50;;
58071;SDS011;60383;46.626;18.866;2023-09-12T11:14:02;4.10;;;2.58;;
58071;SDS011;60383;46.626;18.866;2023-09-12T11:16:28;3.83;;;2.30;;
58071;SDS011;60383;46.626;18.866;2023-09-12T11:21:48;6.82;;;2.70;;
58071;SDS011;60383;46.626;18.866;2023-09-12T11:24:16;4.05;;;2.65;;
58071;SDS011;60383;46.626;18.866;2023-09-12T11:29:42;4.05;;;2.50;;
58071;SDS011;60383;46.626;18.866;2023-09-12T11:32:07;3.65;;;2.72;;
58071;SDS011;60383;46.626;18.866;2023-09-12T11:37:05;3.83;;;2.45;;
58071;SDS011;60383;46.626;18.866;2023-09-12T11:39:35;6.53;;;3.10;;
58071;SDS011;60383;46.626;18.866;2023-09-12T11:42:02;5.57;;;2.85;;
58071;SDS011;60383;46.626;18.866;2023-09-12T11:44:30;4.57;;;2.63;;
58071;SDS011;60383;46.626;18.866;2023-09-12T11:46:56;4.80;;;2.83;;
58071;SDS011;60383;46.626;18.866;2023-09-12T11:49:37;4.78;;;2.65;;
58071;SDS011;60383;46.626;18.866;2023-09-12T11:52:07;6.88;;;3.17;;
58071;SDS011;60383;46.626;18.866;2023-09-12T11:54:34;4.93;;;2.70;;
58071;SDS011;60383;46.626;18.866;2023-09-12T11:56:59;6.28;;;2.50;;
58071;SDS011;60383;46.626;18.866;2023-09-12T11:59:27;3.92;;;2.55;;
58071;SDS011;60383;46.626;18.866;2023-09-12T12:01:53;5.18;;;2.60;;
58071;SDS011;60383;46.626;18.866;2023-09-12T12:04:23;3.33;;;2.40;;
58071;SDS011;60383;46.626;18.866;2023-09-12T12:06:52;7.22;;;2.50;;
58071;SDS011;60383;46.626;18.866;2023-09-12T12:09:18;4.38;;;2.42;;
58071;SDS011;60383;46.626;18.866;2023-09-12T12:11:45;4.57;;;2.22;;
58071;SDS011;60383;46.626;18.866;2023-09-12T12:14:15;4.65;;;2.25;;
58071;SDS011;60383;46.626;18.866;2023-09-12T12:16:43;2.55;;;2.00;;
58071;SDS011;60383;46.626;18.866;2023-09-12T12:19:10;3.88;;;2.08;;
58071;SDS011;60383;46.626;18.866;2023-09-12T12:24:09;4.33;;;2.60;;
58071;SDS011;60383;46.626;18.866;2023-09-12T12:26:36;5.38;;;2.60;;
58071;SDS011;60383;46.626;18.866;2023-09-12T12:29:01;4.20;;;2.22;;
58071;SDS011;60383;46.626;18.866;2023-09-12T12:31:28;4.00;;;2.50;;
58071;SDS011;60383;46.626;18.866;2023-09-12T12:33:54;3.75;;;2.55;;
58071;SDS011;60383;46.626;18.866;2023-09-12T12:36:20;6.95;;;2.42;;
58071;SDS011;60383;46.626;18.866;2023-09-12T12:38:46;5.22;;;2.30;;
58071;SDS011;60383;46.626;18.866;2023-09-12T12:41:13;3.38;;;2.20;;
58071;SDS011;60383;46.626;18.866;2023-09-12T12:43:48;4.55;;;2.30;;
58071;SDS011;60383;46.626;18.866;2023-09-12T12:46:16;4.68;;;2.67;;
58071;SDS011;60383;46.626;18.866;2023-09-12T12:48:45;4.50;;;2.55;;
58071;SDS011;60383;46.626;18.866;2023-09-12T12:51:14;3.20;;;2.60;;
58071;SDS011;60383;46.626;18.866;2023-09-12T12:53:49;3.92;;;2.55;;
58071;SDS011;60383;46.626;18.866;2023-09-12T12:56:23;3.97;;;2.42;;
58071;SDS011;60383;46.626;18.866;2023-09-12T12:58:59;5.20;;;2.67;;
58071;SDS011;60383;46.626;18.866;2023-09-12T13:01:27;4.75;;;2.72;;
58071;SDS011;60383;46.626;18.866;2023-09-12T13:03:54;3.47;;;2.30;;
58071;SDS011;60383;46.626;18.866;2023-09-12T13:06:21;4.68;;;2.78;;
58071;SDS011;60383;46.626;18.866;2023-09-12T13:08:47;3.70;;;2.22;;
58071;SDS011;60383;46.626;18.866;2023-09-12T13:11:15;6.38;;;2.40;;
58071;SDS011;60383;46.626;18.866;2023-09-12T13:13:41;4.32;;;2.33;;
58071;SDS011;60383;46.626;18.866;2023-09-12T13:16:08;4.82;;;2.38;;
58071;SDS011;60383;46.626;18.866;2023-09-12T13:18:35;4.80;;;2.42;;
58071;SDS011;60383;46.626;18.866;2023-09-12T13:21:01;7.53;;;2.45;;
58071;SDS011;60383;46.626;18.866;2023-09-12T13:23:27;4.88;;;2.33;;
58071;SDS011;60383;46.626;18.866;2023-09-12T13:25:54;2.90;;;2.20;;
58071;SDS011;60383;46.626;18.866;2023-09-12T13:28:20;5.00;;;2.28;;
58071;SDS011;60383;46.626;18.866;2023-09-12T13:30:46;7.57;;;2.85;;
58071;SDS011;60383;46.626;18.866;2023-09-12T13:33:12;5.10;;;3.00;;
58071;SDS011;60383;46.626;18.866;2023-09-12T13:35:40;7.80;;;2.37;;
58071;SDS011;60383;46.626;18.866;2023-09-12T13:38:06;5.68;;;2.63;;
58071;SDS011;60383;46.626;18.866;2023-09-12T13:40:36;8.75;;;3.03;;
58071;SDS011;60383;46.626;18.866;2023-09-12T13:43:03;5.28;;;2.80;;
58071;SDS011;60383;46.626;18.866;2023-09-12T13:45:29;4.90;;;2.42;;
58071;SDS011;60383;46.626;18.866;2023-09-12T13:47:54;3.85;;;2.70;;
58071;SDS011;60383;46.626;18.866;2023-09-12T13:50:20;5.80;;;2.53;;
58071;SDS011;60383;46.626;18.866;2023-09-12T13:52:45;9.98;;;2.60;;
58071;SDS011;60383;46.626;18.866;2023-09-12T13:55:11;7.68;;;3.13;;
58071;SDS011;60383;46.626;18.866;2023-09-12T13:57:39;5.93;;;2.90;;
58071;SDS011;60383;46.626;18.866;2023-09-12T14:00:05;4.47;;;2.50;;
58071;SDS011;60383;46.626;18.866;2023-09-12T14:02:32;6.10;;;2.53;;
58071;SDS011;60383;46.626;18.866;2023-09-12T14:04:58;5.97;;;2.60;;
58071;SDS011;60383;46.626;18.866;2023-09-12T14:07:23;4.68;;;2.30;;
58071;SDS011;60383;46.626;18.866;2023-09-12T14:09:49;5.00;;;2.78;;
58071;SDS011;60383;46.626;18.866;2023-09-12T14:12:16;5.75;;;2.55;;
58071;SDS011;60383;46.626;18.866;2023-09-12T14:14:41;4.10;;;2.67;;
58071;SDS011;60383;46.626;18.866;2023-09-12T14:17:07;8.55;;;2.63;;
58071;SDS011;60383;46.626;18.866;2023-09-12T14:19:33;5.13;;;2.92;;
58071;SDS011;60383;46.626;18.866;2023-09-12T14:21:59;7.22;;;2.90;;
58071;SDS011;60383;46.626;18.866;2023-09-12T14:24:24;5.20;;;2.30;;
58071;SDS011;60383;46.626;18.866;2023-09-12T14:26:50;4.50;;;1.92;;
58071;SDS011;60383;46.626;18.866;2023-09-12T14:29:16;6.13;;;2.33;;
58071;SDS011;60383;46.626;18.866;2023-09-12T14:31:41;6.07;;;2.78;;
58071;SDS011;60383;46.626;18.866;2023-09-12T14:34:14;5.90;;;2.30;;
58071;SDS011;60383;46.626;18.866;2023-09-12T14:36:40;6.20;;;2.45;;
58071;SDS011;60383;46.626;18.866;2023-09-12T14:39:06;4.63;;;2.28;;
58071;SDS011;60383;46.626;18.866;2023-09-12T14:41:32;6.95;;;2.65;;
58071;SDS011;60383;46.626;18.866;2023-09-12T14:43:57;6.10;;;2.30;;
58071;SDS011;60383;46.626;18.866;2023-09-12T14:46:23;9.02;;;2.97;;
58071;SDS011;60383;46.626;18.866;2023-09-12T14:48:48;7.90;;;3.00;;
58071;SDS011;60383;46.626;18.866;2023-09-12T14:51:14;4.95;;;2.47;;
58071;SDS011;60383;46.626;18.866;2023-09-12T14:53:39;10.27;;;2.88;;